createdAt,value
2023-05-12T00:01:23.453Z,97281.31
2023-05-12T00:04:10.587Z,97288.25
2023-05-12T00:06:57.576Z,97291.00
2023-05-12T00:09:44.435Z,97290.66
2023-05-12T00:12:32.194Z,97287.09
2023-05-12T00:15:20.056Z,97287.50
2023-05-12T00:18:07.020Z,97281.84
2023-05-12T00:20:55.118Z,97278.69
2023-05-12T00:23:42.190Z,97279.63
2023-05-12T00:26:29.062Z,97281.06
2023-05-12T00:29:15.903Z,97280.91
2023-05-12T00:32:02.827Z,97282.94
2023-05-12T00:34:50.567Z,97289.94
2023-05-12T00:37:37.928Z,97278.59
2023-05-12T00:40:24.876Z,97273.13
2023-05-12T00:43:11.731Z,97271.84
2023-05-12T00:45:59.352Z,97273.94
2023-05-12T00:48:46.530Z,97271.22
2023-05-12T00:51:34.152Z,97269.63
2023-05-12T00:54:21.071Z,97271.34
2023-05-12T00:57:08.322Z,97275.47
2023-05-12T00:59:55.859Z,97275.19
2023-05-12T01:02:43.049Z,97267.16
2023-05-12T01:05:49.150Z,97265.41
2023-05-12T01:08:36.993Z,97263.41
2023-05-12T01:11:24.434Z,97260.94
2023-05-12T01:14:11.412Z,97259.06
2023-05-12T01:17:01.807Z,97262.94
2023-05-12T01:19:52.532Z,97268.81
2023-05-12T01:22:39.840Z,97257.31
2023-05-12T01:25:31.213Z,97264.75
2023-05-12T01:28:18.526Z,97270.25
2023-05-12T01:31:07.180Z,97267.09
2023-05-12T01:33:54.055Z,97271.13
2023-05-12T01:36:40.900Z,97258.34
2023-05-12T01:39:27.755Z,97267.72
2023-05-12T01:42:14.621Z,97261.09
2023-05-12T01:45:01.505Z,97263.94
2023-05-12T01:47:48.561Z,97264.38
2023-05-12T01:50:35.916Z,97259.06
2023-05-12T01:53:22.828Z,97267.78
2023-05-12T01:56:09.767Z,97265.47
2023-05-12T01:58:56.668Z,97261.84
2023-05-12T02:01:43.672Z,97268.66
2023-05-12T02:04:30.615Z,97270.38
2023-05-12T02:07:17.444Z,97267.78
2023-05-12T02:10:04.740Z,97276.13
2023-05-12T02:12:51.674Z,97274.94
2023-05-12T02:15:38.608Z,97264.19
2023-05-12T02:18:25.530Z,97272.38
2023-05-12T02:21:12.518Z,97275.69
2023-05-12T02:23:59.327Z,97272.06
2023-05-12T02:26:46.180Z,97269.06
2023-05-12T02:29:33.034Z,97274.81
2023-05-12T02:32:19.983Z,97279.03
2023-05-12T02:35:08.121Z,97276.13
2023-05-12T02:37:54.983Z,97278.09
2023-05-12T02:40:42.424Z,97274.22
2023-05-12T02:43:29.344Z,97272.22
2023-05-12T02:46:16.318Z,97267.53
2023-05-12T02:49:03.319Z,97272.28
2023-05-12T02:51:50.256Z,97264.50
2023-05-12T02:54:37.119Z,97262.03
2023-05-12T02:57:24.156Z,97264.91
2023-05-12T03:00:11.481Z,97264.47
2023-05-12T03:02:58.422Z,97259.94
2023-05-12T03:05:45.338Z,97261.00
2023-05-12T03:08:32.925Z,97263.00
2023-05-12T03:11:19.804Z,97270.16
2023-05-12T03:14:06.831Z,97265.72
2023-05-12T03:16:54.930Z,97269.75
2023-05-12T03:19:41.777Z,97272.22
2023-05-12T03:22:28.849Z,97271.50
2023-05-12T03:25:15.784Z,97274.31
2023-05-12T03:28:03.664Z,97262.28
2023-05-12T03:30:50.534Z,97276.16
2023-05-12T03:33:37.411Z,97269.75
2023-05-12T03:36:24.349Z,97267.94
2023-05-12T03:39:12.374Z,97269.41
2023-05-12T03:41:59.215Z,97267.09
2023-05-12T03:44:46.120Z,97270.84
2023-05-12T03:47:34.766Z,97267.72
2023-05-12T03:50:22.345Z,97267.94
2023-05-12T03:53:09.332Z,97260.56
2023-05-12T03:55:56.197Z,97263.47
2023-05-12T03:58:43.806Z,97262.81
2023-05-12T04:01:32.693Z,97261.16
2023-05-12T04:04:19.564Z,97267.09
2023-05-12T04:07:06.680Z,97262.19
2023-05-12T04:09:53.538Z,97268.44
2023-05-12T04:12:40.572Z,97269.41
2023-05-12T04:15:27.996Z,97271.34
2023-05-12T04:18:15.390Z,97275.13
2023-05-12T04:21:02.975Z,97287.19
2023-05-12T04:23:53.382Z,97288.94
2023-05-12T04:26:40.400Z,97284.75
2023-05-12T04:29:27.588Z,97292.09
2023-05-12T04:32:14.548Z,97290.69
2023-05-12T04:35:01.550Z,97296.97
2023-05-12T04:37:49.155Z,97290.06
2023-05-12T04:40:36.303Z,97298.69
2023-05-12T04:46:13.316Z,97308.38
2023-05-12T04:49:00.228Z,97306.69
2023-05-12T04:51:47.070Z,97307.91
2023-05-12T04:54:33.914Z,97314.41
2023-05-12T04:57:20.754Z,97313.13
2023-05-12T05:00:09.164Z,97317.13
2023-05-12T05:02:56.275Z,97320.28
2023-05-12T05:05:43.185Z,97323.28
2023-05-12T05:08:30.053Z,97316.41
2023-05-12T05:11:16.874Z,97315.94
2023-05-12T05:14:03.924Z,97317.72
2023-05-12T05:16:50.915Z,97323.81
2023-05-12T05:19:53.625Z,97324.63
2023-05-12T05:22:44.828Z,97319.94
2023-05-12T05:25:31.677Z,97322.25
2023-05-12T05:28:18.499Z,97324.22
2023-05-12T05:31:06.070Z,97319.34
2023-05-12T05:33:52.947Z,97322.50
2023-05-12T05:36:39.898Z,97321.53
2023-05-12T05:39:30.650Z,97329.06
2023-05-12T05:42:18.946Z,97329.31
2023-05-12T05:45:06.544Z,97332.47
2023-05-12T05:47:53.494Z,97331.78
2023-05-12T05:50:40.738Z,97336.69
2023-05-12T05:53:27.856Z,97337.06
2023-05-12T05:56:14.723Z,97341.88
2023-05-12T05:59:04.318Z,97342.19
2023-05-12T06:01:51.901Z,97342.53
2023-05-12T06:04:38.831Z,97344.25
2023-05-12T06:07:26.185Z,97337.94
2023-05-12T06:10:13.092Z,97346.38
2023-05-12T06:13:00.074Z,97343.41
2023-05-12T06:15:47.055Z,97355.69
2023-05-12T06:18:37.589Z,97352.63
2023-05-12T06:21:24.726Z,97355.84
2023-05-12T06:24:11.562Z,97359.78
2023-05-12T06:26:58.458Z,97360.38
2023-05-12T06:29:45.415Z,97359.50
2023-05-12T06:32:32.322Z,97369.47
2023-05-12T06:35:19.389Z,97371.34
2023-05-12T06:38:06.337Z,97368.94
2023-05-12T06:40:53.177Z,97378.00
2023-05-12T06:43:40.023Z,97373.78
2023-05-12T06:46:26.877Z,97372.94
2023-05-12T06:49:13.794Z,97383.28
2023-05-12T06:52:00.633Z,97382.25
2023-05-12T06:54:47.498Z,97382.00
2023-05-12T06:57:34.560Z,97369.31
2023-05-12T07:00:25.705Z,97373.22
2023-05-12T07:03:12.603Z,97384.31
2023-05-12T07:05:59.583Z,97374.25
2023-05-12T07:08:46.419Z,97381.94
2023-05-12T07:11:33.295Z,97382.97
2023-05-12T07:14:20.194Z,97381.88
2023-05-12T07:17:07.084Z,97391.38
2023-05-12T07:19:53.941Z,97388.50
2023-05-12T07:22:40.999Z,97387.94
2023-05-12T07:25:28.373Z,97388.09
2023-05-12T07:28:15.429Z,97388.97
2023-05-12T07:31:09.380Z,97395.53
2023-05-12T07:33:56.673Z,97390.25
2023-05-12T07:36:44.036Z,97389.91
2023-05-12T07:39:32.395Z,97390.31
2023-05-12T07:42:19.381Z,97391.03
2023-05-12T07:45:06.680Z,97386.84
2023-05-12T07:47:53.617Z,97394.19
2023-05-12T07:50:40.850Z,97396.34
2023-05-12T07:53:27.651Z,97392.31
2023-05-12T07:56:15.036Z,97398.25
2023-05-12T07:59:02.148Z,97397.53
2023-05-12T08:01:49.330Z,97400.75
2023-05-12T08:04:36.194Z,97402.22
2023-05-12T08:07:23.144Z,97400.19
2023-05-12T08:10:12.949Z,97400.03
2023-05-12T08:12:59.872Z,97402.34
2023-05-12T08:15:47.997Z,97401.06
2023-05-12T08:18:34.985Z,97402.09
2023-05-12T08:21:22.176Z,97398.22
2023-05-12T08:24:12.044Z,97394.78
2023-05-12T08:26:58.876Z,97400.75
2023-05-12T08:29:45.796Z,97398.00
2023-05-12T08:32:32.683Z,97408.22
2023-05-12T08:35:19.921Z,97402.44
2023-05-12T08:38:07.332Z,97404.78
2023-05-12T08:41:12.810Z,97411.44
2023-05-12T08:44:00.393Z,97407.03
2023-05-12T08:46:48.302Z,97404.41
2023-05-12T08:49:36.964Z,97409.91
2023-05-12T08:52:24.857Z,97399.03
2023-05-12T08:55:12.336Z,97401.78
2023-05-12T08:58:00.089Z,97414.56
2023-05-12T09:00:47.050Z,97405.63
2023-05-12T09:03:34.961Z,97411.25
2023-05-12T09:06:22.055Z,97410.22
2023-05-12T09:09:09.199Z,97422.78
2023-05-12T09:11:58.165Z,97423.66
2023-05-12T09:14:47.888Z,97416.91
2023-05-12T09:17:35.582Z,97417.00
2023-05-12T09:23:18.407Z,97421.97
2023-05-12T09:26:05.259Z,97424.72
2023-05-12T09:29:04.592Z,97424.63
2023-05-12T09:31:52.476Z,97429.69
2023-05-12T09:34:41.331Z,97421.59
2023-05-12T09:37:32.785Z,97423.03
2023-05-12T09:40:19.685Z,97429.53
2023-05-12T09:43:07.673Z,97428.09
2023-05-12T09:45:55.653Z,97425.22
2023-05-12T09:48:42.639Z,97427.41
2023-05-12T09:51:31.114Z,97430.88
2023-05-12T09:54:31.375Z,97427.84
2023-05-12T09:57:21.091Z,97426.38
2023-05-12T10:00:21.114Z,97421.59
2023-05-12T10:03:18.474Z,97425.22
2023-05-12T10:06:08.132Z,97422.47
2023-05-12T10:09:18.389Z,97421.91
2023-05-12T10:12:06.457Z,97426.22
2023-05-12T10:14:55.244Z,97433.91
2023-05-12T10:17:42.896Z,97424.50
2023-05-12T10:20:30.901Z,97427.53
2023-05-12T10:23:19.306Z,97423.03
2023-05-12T10:26:06.432Z,97428.41
2023-05-12T10:28:53.770Z,97421.47
2023-05-12T10:31:41.288Z,97428.41
2023-05-12T10:34:34.954Z,97423.34
2023-05-12T10:37:24.785Z,97431.53
2023-05-12T10:40:11.881Z,97420.41
2023-05-12T10:43:02.409Z,97429.94
2023-05-12T10:46:30.436Z,97427.91
2023-05-12T10:49:20.079Z,97428.84
2023-05-12T10:52:07.648Z,97430.88
2023-05-12T10:55:01.768Z,97430.31
2023-05-12T10:57:51.108Z,97440.84
2023-05-12T11:00:51.809Z,97437.84
2023-05-12T11:03:39.861Z,97437.53
2023-05-12T11:06:30.657Z,97433.38
2023-05-12T11:09:18.160Z,97441.03
2023-05-12T11:12:09.588Z,97436.56
2023-05-12T11:14:56.534Z,97439.16
2023-05-12T11:17:43.411Z,97443.84
2023-05-12T11:20:31.009Z,97440.66
2023-05-12T11:23:26.868Z,97448.84
2023-05-12T11:26:18.523Z,97447.75
2023-05-12T11:29:05.388Z,97447.53
2023-05-12T11:31:53.424Z,97453.78
2023-05-12T11:34:40.362Z,97444.63
2023-05-12T11:37:27.278Z,97447.72
2023-05-12T11:40:18.739Z,97451.66
2023-05-12T11:43:10.380Z,97454.97
2023-05-12T11:45:57.285Z,97452.09
2023-05-12T11:48:44.166Z,97455.41
2023-05-12T11:51:32.124Z,97460.50
2023-05-12T11:54:19.135Z,97448.06
2023-05-12T11:57:06.116Z,97453.41
2023-05-12T12:00:04.657Z,97462.34
2023-05-12T12:02:51.662Z,97465.94
2023-05-12T12:05:40.720Z,97462.22
2023-05-12T12:08:27.682Z,97465.41
2023-05-12T12:11:14.665Z,97463.91
2023-05-12T12:14:02.337Z,97469.22
2023-05-12T12:16:49.184Z,97470.97
2023-05-12T12:19:36.044Z,97469.06
2023-05-12T12:22:23.483Z,97476.03
2023-05-12T12:25:11.058Z,97475.94
2023-05-12T12:27:57.945Z,97464.59
2023-05-12T12:30:44.777Z,97472.84
2023-05-12T12:33:31.680Z,97476.69
2023-05-12T12:36:18.613Z,97472.38
2023-05-12T12:39:05.546Z,97469.66
2023-05-12T12:41:54.107Z,97470.47
2023-05-12T12:44:41.127Z,97470.59
2023-05-12T12:47:28.020Z,97476.19
2023-05-12T12:50:15.053Z,97469.28
2023-05-12T12:53:02.066Z,97471.84
2023-05-12T12:55:48.979Z,97472.91
2023-05-12T12:58:35.806Z,97481.72
2023-05-12T13:01:23.278Z,97481.25
2023-05-12T13:04:10.469Z,97477.91
2023-05-12T13:06:57.340Z,97475.41
2023-05-12T13:09:44.200Z,97478.50
2023-05-12T13:12:31.480Z,97476.66
2023-05-12T13:15:19.569Z,97478.56
2023-05-12T13:18:06.741Z,97480.72
2023-05-12T13:20:54.241Z,97473.97
2023-05-12T13:23:41.276Z,97481.75
2023-05-12T13:26:28.406Z,97484.94
2023-05-12T13:29:15.720Z,97481.75
2023-05-12T13:32:03.175Z,97482.06
2023-05-12T13:34:50.117Z,97486.69
2023-05-12T13:37:37.481Z,97482.06
2023-05-12T13:40:24.385Z,97489.16
2023-05-12T13:43:12.254Z,97478.31
2023-05-12T13:45:59.125Z,97478.03
2023-05-12T13:48:46.776Z,97482.94
2023-05-12T13:51:33.628Z,97491.03
2023-05-12T13:54:20.519Z,97489.75
2023-05-12T13:57:07.567Z,97493.34
2023-05-12T13:59:57.718Z,97486.56
2023-05-12T14:02:44.880Z,97490.75
2023-05-12T14:05:32.555Z,97488.16
2023-05-12T14:08:22.612Z,97491.06
2023-05-12T14:11:10.151Z,97484.97
2023-05-12T14:13:57.443Z,97494.94
2023-05-12T14:16:44.407Z,97493.91
2023-05-12T14:19:31.293Z,97502.03
2023-05-12T14:22:25.370Z,97498.13
2023-05-12T14:25:13.152Z,97495.66
2023-05-12T14:28:00.054Z,97503.03
2023-05-12T14:30:48.689Z,97499.00
2023-05-12T14:33:35.596Z,97492.91
2023-05-12T14:36:22.489Z,97491.34
2023-05-12T14:39:09.393Z,97488.44
2023-05-12T14:41:56.292Z,97499.56
2023-05-12T14:44:43.602Z,97502.13
2023-05-12T14:47:31.028Z,97499.41
2023-05-12T14:50:18.949Z,97508.06
2023-05-12T14:53:06.160Z,97502.56
2023-05-12T14:55:53.087Z,97504.63
2023-05-12T14:58:40.088Z,97510.78
2023-05-12T15:01:27.010Z,97505.47
2023-05-12T15:04:13.992Z,97516.44
2023-05-12T15:07:00.894Z,97506.03
2023-05-12T15:09:47.806Z,97495.78
2023-05-12T15:12:35.021Z,97512.25
2023-05-12T15:15:23.848Z,97515.22
2023-05-12T15:18:10.853Z,97524.91
2023-05-12T15:20:57.730Z,97517.88
2023-05-12T15:23:44.633Z,97524.75
2023-05-12T15:26:33.561Z,97523.88
2023-05-12T15:29:21.490Z,97532.25
2023-05-12T15:32:08.526Z,97527.94
2023-05-12T15:34:57.864Z,97527.22
2023-05-12T15:37:44.972Z,97531.25
2023-05-12T15:40:31.798Z,97526.16
2023-05-12T15:43:18.737Z,97530.47
2023-05-12T15:46:05.729Z,97532.75
2023-05-12T15:48:52.654Z,97524.94
2023-05-12T15:51:39.514Z,97527.94
2023-05-12T15:54:26.620Z,97526.31
2023-05-12T15:57:13.760Z,97525.25
2023-05-12T16:00:01.382Z,97523.41
2023-05-12T16:02:49.962Z,97532.41
2023-05-12T16:05:38.795Z,97522.56
2023-05-12T16:08:25.684Z,97528.09
2023-05-12T16:11:13.207Z,97528.41
2023-05-12T16:14:02.210Z,97527.56
2023-05-12T16:16:49.515Z,97538.56
2023-05-12T16:19:37.725Z,97527.22
2023-05-12T16:22:24.716Z,97527.59
2023-05-12T16:25:11.564Z,97524.97
2023-05-12T16:27:58.531Z,97526.75
2023-05-12T16:30:45.575Z,97523.16
2023-05-12T16:33:32.462Z,97525.53
2023-05-12T16:36:19.828Z,97525.09
2023-05-12T16:39:08.812Z,97530.13
2023-05-12T16:41:55.925Z,97526.41
2023-05-12T16:44:42.866Z,97532.59
2023-05-12T16:47:29.772Z,97534.63
2023-05-12T16:50:17.016Z,97536.16
2023-05-12T16:53:03.859Z,97538.59
2023-05-12T16:55:52.484Z,97535.59
2023-05-12T16:58:40.582Z,97534.88
2023-05-12T17:01:27.608Z,97534.50
2023-05-12T17:04:15.592Z,97537.28
2023-05-12T17:07:02.664Z,97546.88
2023-05-12T17:09:49.861Z,97541.72
2023-05-12T17:12:36.940Z,97542.63
2023-05-12T17:15:24.206Z,97546.41
2023-05-12T17:18:12.907Z,97541.75
2023-05-12T17:20:59.952Z,97557.53
2023-05-12T17:23:47.476Z,97547.47
2023-05-12T17:26:34.704Z,97543.13
2023-05-12T17:29:21.545Z,97552.22
2023-05-12T17:32:08.410Z,97548.69
2023-05-12T17:34:57.583Z,97553.81
2023-05-12T17:37:44.514Z,97545.94
2023-05-12T17:40:31.565Z,97549.06
2023-05-12T17:43:18.535Z,97544.72
2023-05-12T17:46:09.149Z,97542.22
2023-05-12T17:48:56.147Z,97544.91
2023-05-12T17:51:44.429Z,97546.19
2023-05-12T17:54:31.551Z,97555.13
2023-05-12T17:57:18.481Z,97558.47
2023-05-12T18:00:09.988Z,97561.16
2023-05-12T18:02:59.090Z,97566.88
2023-05-12T18:05:46.029Z,97555.69
2023-05-12T18:08:33.130Z,97564.31
2023-05-12T18:11:20.023Z,97558.50
2023-05-12T18:14:07.200Z,97567.03
2023-05-12T18:16:54.873Z,97558.09
2023-05-12T18:19:41.797Z,97556.63
2023-05-12T18:22:28.731Z,97565.09
2023-05-12T18:25:15.868Z,97568.31
2023-05-12T18:28:02.817Z,97562.06
2023-05-12T18:30:49.820Z,97569.69
2023-05-12T18:33:37.000Z,97562.13
2023-05-12T18:36:23.938Z,97570.81
2023-05-12T18:39:11.272Z,97568.78
2023-05-12T18:41:58.569Z,97573.47
2023-05-12T18:44:45.466Z,97567.50
2023-05-12T18:47:33.524Z,97577.06
2023-05-12T18:50:20.499Z,97578.94
2023-05-12T18:53:07.478Z,97584.56
2023-05-12T18:55:54.383Z,97578.38
2023-05-12T18:58:41.570Z,97596.06
2023-05-12T19:01:28.605Z,97585.75
2023-05-12T19:04:16.272Z,97594.53
2023-05-12T19:07:03.901Z,97601.66
2023-05-12T19:09:50.825Z,97602.09
2023-05-12T19:12:37.995Z,97607.53
2023-05-12T19:15:24.968Z,97598.94
2023-05-12T19:18:12.124Z,97605.94
2023-05-12T19:20:59.170Z,97614.41
2023-05-12T19:23:47.105Z,97614.34
2023-05-12T19:26:34.104Z,97618.03
2023-05-12T19:29:21.274Z,97617.19
2023-05-12T19:32:08.895Z,97619.75
2023-05-12T19:34:56.102Z,97618.31
2023-05-12T19:37:43.226Z,97621.16
2023-05-12T19:40:30.600Z,97616.63
2023-05-12T19:43:17.783Z,97619.69
2023-05-12T19:46:04.680Z,97621.00
2023-05-12T19:48:52.680Z,97616.47
2023-05-12T19:51:39.584Z,97623.00
2023-05-12T19:54:26.696Z,97620.78
2023-05-12T19:57:13.562Z,97626.47
2023-05-12T20:00:00.443Z,97626.66
2023-05-12T20:02:47.376Z,97623.38
2023-05-12T20:05:37.787Z,97621.16
2023-05-12T20:08:24.688Z,97624.06
2023-05-12T20:11:11.605Z,97622.28
2023-05-12T20:13:58.750Z,97618.25
2023-05-12T20:16:45.815Z,97619.16
2023-05-12T20:19:33.357Z,97616.44
2023-05-12T20:22:21.992Z,97613.13
2023-05-12T20:25:09.456Z,97614.59
2023-05-12T20:27:56.363Z,97615.00
2023-05-12T20:30:43.224Z,97611.94
2023-05-12T20:33:30.161Z,97612.25
2023-05-12T20:36:16.997Z,97609.53
2023-05-12T20:39:04.688Z,97609.59
2023-05-12T20:41:51.523Z,97606.91
2023-05-12T20:44:38.459Z,97610.03
2023-05-12T20:47:25.437Z,97616.00
2023-05-12T20:50:12.689Z,97613.09
2023-05-12T20:52:59.626Z,97618.63
2023-05-12T20:55:46.480Z,97619.38
2023-05-12T20:58:33.491Z,97608.78
2023-05-12T21:01:20.554Z,97611.31
2023-05-12T21:04:07.783Z,97604.56
2023-05-12T21:06:54.679Z,97610.25
2023-05-12T21:09:41.791Z,97612.81
2023-05-12T21:12:29.469Z,97617.81
2023-05-12T21:15:16.507Z,97624.03
2023-05-12T21:18:03.527Z,97621.63
2023-05-12T21:20:50.500Z,97621.44
2023-05-12T21:23:37.791Z,97615.94
2023-05-12T21:26:26.729Z,97613.72
2023-05-12T21:29:13.622Z,97623.69
2023-05-12T21:32:01.410Z,97621.91
2023-05-12T21:34:48.608Z,97618.28
2023-05-12T21:37:35.601Z,97611.19
2023-05-12T21:40:22.701Z,97611.53
2023-05-12T21:43:09.750Z,97610.47
2023-05-12T21:46:01.089Z,97612.16
2023-05-12T21:48:48.280Z,97604.09
2023-05-12T21:51:35.204Z,97607.47
2023-05-12T21:54:22.220Z,97610.38
2023-05-12T21:57:09.085Z,97605.97
2023-05-12T21:59:56.851Z,97605.78
2023-05-12T22:02:44.813Z,97605.44
2023-05-12T22:05:31.979Z,97609.63
2023-05-12T22:08:19.121Z,97603.09
2023-05-12T22:11:06.135Z,97597.97
2023-05-12T22:13:53.136Z,97601.13
2023-05-12T22:16:42.228Z,97603.72
2023-05-12T22:19:29.628Z,97608.28
2023-05-12T22:22:16.668Z,97608.56
2023-05-12T22:25:04.752Z,97607.16
2023-05-12T22:27:51.563Z,97610.75
2023-05-12T22:30:38.478Z,97614.03
2023-05-12T22:33:25.360Z,97610.09
2023-05-12T22:36:12.221Z,97612.25
2023-05-12T22:38:59.323Z,97606.00
2023-05-12T22:41:46.186Z,97599.84
2023-05-12T22:44:33.004Z,97601.84
2023-05-12T22:47:19.994Z,97594.38
2023-05-12T22:50:07.220Z,97599.31
2023-05-12T22:52:57.312Z,97600.56
2023-05-12T22:55:44.290Z,97598.16
2023-05-12T22:58:31.413Z,97600.81
2023-05-12T23:01:18.629Z,97604.22
2023-05-12T23:04:06.037Z,97604.22
2023-05-12T23:06:52.996Z,97601.47
2023-05-12T23:09:39.917Z,97597.81
2023-05-12T23:12:26.963Z,97590.56
2023-05-12T23:15:13.910Z,97596.34
2023-05-12T23:18:00.795Z,97592.91
2023-05-12T23:20:47.736Z,97601.47
2023-05-12T23:23:34.569Z,97599.97
2023-05-12T23:26:22.264Z,97598.94
2023-05-12T23:29:09.149Z,97596.19
2023-05-12T23:31:57.111Z,97595.63
2023-05-12T23:34:44.466Z,97587.28
2023-05-12T23:37:31.381Z,97595.63
2023-05-12T23:40:18.665Z,97592.19
2023-05-12T23:43:08.885Z,97599.84
2023-05-12T23:45:55.842Z,97597.16
2023-05-12T23:48:43.048Z,97600.47
2023-05-12T23:51:30.039Z,97601.81
2023-05-12T23:54:16.983Z,97588.53
2023-05-12T23:57:04.645Z,97591.84
2023-05-12T23:59:51.578Z,97578.38
